Pythagoras — C6ZO4 — position and weather

sailwx.info

Track history (hours):
 
Tides and Currents Weather Stations Pressure Air Temp Water Temp Dewpoint Dewpoint Depression Visibility Wind Speed Wind Dir Waves Ship Positions

Pythagoras

Last reported at 2014-Sep-09 22:09 UTC. Time now 2014-Sep-16 21:35 UTC.
Position N 22°16' E 119°53'.

Length 190 m; draft 6.8 m.

Type: Cargo ship. MMSI: 311061300.

Date/timePositionNaut miles runAvg speedWind from/ knotsBaromVisibWave heightAir tempDewpointWater temp
2014-Sep-09 22:09N 22°16' E 119°53'1015.3
2014-Sep-09 21:28N 22°27' E 119°54'1314.9
2014-Sep-09 20:34N 22°40' E 119°54'1614.4
2014-Sep-09 19:27N 22°56' E 119°53'4614.9
2014-Sep-09 16:22N 23°42' E 119°54'1012.6
2014-Sep-09 15:33N 23°52' E 119°56'1313.0
2014-Sep-09 14:33N 24°03' E 120°05'23 7.2
2014-Sep-09 11:21N 24°15' E 120°26'0 0.0
2014-Sep-09 09:27N 24°15' E 120°26'0 0.0
2014-Sep-09 08:15N 24°15' E 120°26'0 0.1
2014-Sep-09 07:27N 24°15' E 120°26'0 0.0
2014-Sep-07 13:24N 24°15' E 120°26'4 4.7
2014-Sep-07 12:33N 24°19' E 120°27'4 0.2
2014-Sep-06 12:03N 24°17' E 120°31'0 0.0
2014-Sep-06 10:09N 24°17' E 120°31'90 1.9
2014-Sep-04 10:33N 22°53' E 119°56'1111.0
2014-Sep-04 09:34N 22°45' E 120°03'1111.4
2014-Sep-04 08:34N 22°38' E 120°13'7 6.7
2014-Sep-04 07:33N 22°34' E 120°19'  
2014-Sep-01 17:31N 22°33' E 120°19'0 0.0
2014-Sep-01 03:22N 22°33' E 120°19'0 0.0
2014-Aug-31 14:28N 22°33' E 120°19'0 0.0
2014-Aug-31 13:22N 22°33' E 120°19'0 0.0
2014-Aug-31 08:22N 22°33' E 120°19'  
Track history (hours):
 
Tides and Currents Weather Stations Pressure Air Temp Water Temp Dewpoint Dewpoint Depression Visibility Wind Speed Wind Dir Waves Ship Positions

Pythagoras

Last reported at 2014-Sep-09 22:09 UTC. Time now 2014-Sep-16 21:35 UTC.
Position N 22°16' E 119°53'.

Length 190 m; draft 6.8 m.

Type: Cargo ship. MMSI: 311061300.

Date/timePositionNaut miles runAvg speedWind from/ knotsBaromVisibWave heightAir tempDewpointWater temp
2014-Sep-09 22:09N 22°16' E 119°53'1015.3
2014-Sep-09 21:28N 22°27' E 119°54'1314.9
2014-Sep-09 20:34N 22°40' E 119°54'1614.4
2014-Sep-09 19:27N 22°56' E 119°53'4614.9
2014-Sep-09 16:22N 23°42' E 119°54'1012.6
2014-Sep-09 15:33N 23°52' E 119°56'1313.0
2014-Sep-09 14:33N 24°03' E 120°05'23 7.2
2014-Sep-09 11:21N 24°15' E 120°26'0 0.0
2014-Sep-09 09:27N 24°15' E 120°26'0 0.0
2014-Sep-09 08:15N 24°15' E 120°26'0 0.1
2014-Sep-09 07:27N 24°15' E 120°26'0 0.0
2014-Sep-07 13:24N 24°15' E 120°26'4 4.7
2014-Sep-07 12:33N 24°19' E 120°27'4 0.2
2014-Sep-06 12:03N 24°17' E 120°31'0 0.0
2014-Sep-06 10:09N 24°17' E 120°31'90 1.9
2014-Sep-04 10:33N 22°53' E 119°56'1111.0
2014-Sep-04 09:34N 22°45' E 120°03'1111.4
2014-Sep-04 08:34N 22°38' E 120°13'7 6.7
2014-Sep-04 07:33N 22°34' E 120°19'  
2014-Sep-01 17:31N 22°33' E 120°19'0 0.0
2014-Sep-01 03:22N 22°33' E 120°19'0 0.0
2014-Aug-31 14:28N 22°33' E 120°19'0 0.0
2014-Aug-31 13:22N 22°33' E 120°19'0 0.0
2014-Aug-31 08:22N 22°33' E 120°19'  

Dump ship's entire track history